sensor_id;sensor_type;location;lat;lon;timestamp;temperature;humidity
4908;DHT22;64375;51.540;7.364;2023-07-13T00:01:43;24.40;77.00
4908;DHT22;64375;51.540;7.364;2023-07-13T00:04:16;24.30;71.90
4908;DHT22;64375;51.540;7.364;2023-07-13T00:06:45;24.10;72.40
4908;DHT22;64375;51.540;7.364;2023-07-13T00:09:14;23.90;71.20
4908;DHT22;64375;51.540;7.364;2023-07-13T00:11:45;24.00;72.30
4908;DHT22;64375;51.540;7.364;2023-07-13T00:14:14;23.80;72.30
4908;DHT22;64375;51.540;7.364;2023-07-13T00:16:44;23.80;72.20
4908;DHT22;64375;51.540;7.364;2023-07-13T00:19:13;23.90;74.20
4908;DHT22;64375;51.540;7.364;2023-07-13T00:21:42;23.60;72.40
4908;DHT22;64375;51.540;7.364;2023-07-13T00:24:12;23.60;73.80
4908;DHT22;64375;51.540;7.364;2023-07-13T00:26:40;23.70;75.50
4908;DHT22;64375;51.540;7.364;2023-07-13T00:29:12;23.90;75.30
4908;DHT22;64375;51.540;7.364;2023-07-13T00:31:40;23.90;75.30
4908;DHT22;64375;51.540;7.364;2023-07-13T00:34:10;23.90;73.10
4908;DHT22;64375;51.540;7.364;2023-07-13T00:36:47;23.90;74.10
4908;DHT22;64375;51.540;7.364;2023-07-13T00:39:15;23.80;74.40
4908;DHT22;64375;51.540;7.364;2023-07-13T00:41:49;23.70;72.60
4908;DHT22;64375;51.540;7.364;2023-07-13T00:44:21;23.70;74.70
4908;DHT22;64375;51.540;7.364;2023-07-13T00:46:50;23.90;77.60
4908;DHT22;64375;51.540;7.364;2023-07-13T00:49:22;24.00;78.00
4908;DHT22;64375;51.540;7.364;2023-07-13T00:51:53;24.20;78.10
4908;DHT22;64375;51.540;7.364;2023-07-13T00:54:29;24.50;77.80
4908;DHT22;64375;51.540;7.364;2023-07-13T00:57:00;24.40;76.40
4908;DHT22;64375;51.540;7.364;2023-07-13T00:59:32;24.40;76.80
4908;DHT22;64375;51.540;7.364;2023-07-13T01:02:02;24.40;77.10
4908;DHT22;64375;51.540;7.364;2023-07-13T01:04:31;24.60;77.50
4908;DHT22;64375;51.540;7.364;2023-07-13T01:07:08;24.70;77.10
4908;DHT22;64375;51.540;7.364;2023-07-13T01:09:39;24.70;71.50
4908;DHT22;64375;51.540;7.364;2023-07-13T01:12:14;24.80;76.40
4908;DHT22;64375;51.540;7.364;2023-07-13T01:14:42;24.90;75.90
4908;DHT22;64375;51.540;7.364;2023-07-13T01:17:11;24.80;76.00
4908;DHT22;64375;51.540;7.364;2023-07-13T01:19:43;24.90;76.50
4908;DHT22;64375;51.540;7.364;2023-07-13T01:22:16;25.00;76.10
4908;DHT22;64375;51.540;7.364;2023-07-13T01:24:48;24.80;75.50
4908;DHT22;64375;51.540;7.364;2023-07-13T01:27:22;24.80;76.10
4908;DHT22;64375;51.540;7.364;2023-07-13T01:30:04;25.00;76.00
4908;DHT22;64375;51.540;7.364;2023-07-13T01:32:32;24.90;72.10
4908;DHT22;64375;51.540;7.364;2023-07-13T01:35:01;24.80;73.60
4908;DHT22;64375;51.540;7.364;2023-07-13T01:37:38;24.80;75.90
4908;DHT22;64375;51.540;7.364;2023-07-13T01:40:07;24.70;75.40
4908;DHT22;64375;51.540;7.364;2023-07-13T01:42:41;24.70;76.20
4908;DHT22;64375;51.540;7.364;2023-07-13T01:45:09;24.80;76.10
4908;DHT22;64375;51.540;7.364;2023-07-13T01:47:40;24.90;76.00
4908;DHT22;64375;51.540;7.364;2023-07-13T01:50:13;24.90;75.20
4908;DHT22;64375;51.540;7.364;2023-07-13T01:52:45;24.70;74.70
4908;DHT22;64375;51.540;7.364;2023-07-13T01:55:13;24.80;75.00
4908;DHT22;64375;51.540;7.364;2023-07-13T01:57:41;24.80;75.80
4908;DHT22;64375;51.540;7.364;2023-07-13T02:00:10;24.80;74.40
4908;DHT22;64375;51.540;7.364;2023-07-13T02:02:41;24.60;73.30
4908;DHT22;64375;51.540;7.364;2023-07-13T02:05:12;24.60;76.10
4908;DHT22;64375;51.540;7.364;2023-07-13T02:07:41;24.60;76.10
4908;DHT22;64375;51.540;7.364;2023-07-13T02:10:16;24.50;73.30
4908;DHT22;64375;51.540;7.364;2023-07-13T02:12:44;24.50;76.00
4908;DHT22;64375;51.540;7.364;2023-07-13T02:15:12;24.40;76.00
4908;DHT22;64375;51.540;7.364;2023-07-13T02:17:44;24.40;76.40
4908;DHT22;64375;51.540;7.364;2023-07-13T02:20:12;24.60;76.40
4908;DHT22;64375;51.540;7.364;2023-07-13T02:22:46;24.50;76.00
4908;DHT22;64375;51.540;7.364;2023-07-13T02:25:15;24.50;76.30
4908;DHT22;64375;51.540;7.364;2023-07-13T02:27:46;24.60;76.00
4908;DHT22;64375;51.540;7.364;2023-07-13T02:30:14;24.60;75.80
4908;DHT22;64375;51.540;7.364;2023-07-13T02:32:45;24.60;76.40
4908;DHT22;64375;51.540;7.364;2023-07-13T02:35:19;24.60;75.80
4908;DHT22;64375;51.540;7.364;2023-07-13T02:37:46;24.60;75.80
4908;DHT22;64375;51.540;7.364;2023-07-13T02:40:16;24.50;70.80
4908;DHT22;64375;51.540;7.364;2023-07-13T02:42:44;24.40;75.70
4908;DHT22;64375;51.540;7.364;2023-07-13T02:45:15;24.40;75.40
4908;DHT22;64375;51.540;7.364;2023-07-13T02:47:46;24.40;75.70
4908;DHT22;64375;51.540;7.364;2023-07-13T02:50:14;24.40;76.00
4908;DHT22;64375;51.540;7.364;2023-07-13T02:52:42;24.40;76.00
4908;DHT22;64375;51.540;7.364;2023-07-13T02:55:13;24.10;71.30
4908;DHT22;64375;51.540;7.364;2023-07-13T02:57:44;24.00;73.40
4908;DHT22;64375;51.540;7.364;2023-07-13T03:00:13;24.00;76.30
4908;DHT22;64375;51.540;7.364;2023-07-13T03:02:46;24.00;75.80
4908;DHT22;64375;51.540;7.364;2023-07-13T03:05:17;24.00;75.80
4908;DHT22;64375;51.540;7.364;2023-07-13T03:07:45;24.00;76.50
4908;DHT22;64375;51.540;7.364;2023-07-13T03:10:13;23.80;75.00
4908;DHT22;64375;51.540;7.364;2023-07-13T03:12:45;23.80;75.60
4908;DHT22;64375;51.540;7.364;2023-07-13T03:15:16;23.90;72.00
4908;DHT22;64375;51.540;7.364;2023-07-13T03:17:47;23.90;76.70
4908;DHT22;64375;51.540;7.364;2023-07-13T03:20:18;24.10;76.70
4908;DHT22;64375;51.540;7.364;2023-07-13T03:22:46;24.20;76.50
4908;DHT22;64375;51.540;7.364;2023-07-13T03:25:14;24.20;76.20
4908;DHT22;64375;51.540;7.364;2023-07-13T03:27:42;24.20;76.10
4908;DHT22;64375;51.540;7.364;2023-07-13T03:30:28;24.10;75.30
4908;DHT22;64375;51.540;7.364;2023-07-13T03:33:04;23.90;74.30
4908;DHT22;64375;51.540;7.364;2023-07-13T03:35:34;23.90;76.50
4908;DHT22;64375;51.540;7.364;2023-07-13T03:38:02;23.90;73.00
4908;DHT22;64375;51.540;7.364;2023-07-13T03:40:34;23.60;75.70
4908;DHT22;64375;51.540;7.364;2023-07-13T03:43:02;23.60;76.80
4908;DHT22;64375;51.540;7.364;2023-07-13T03:45:33;23.50;72.40
4908;DHT22;64375;51.540;7.364;2023-07-13T03:48:01;23.50;74.80
4908;DHT22;64375;51.540;7.364;2023-07-13T03:50:29;23.60;77.20
4908;DHT22;64375;51.540;7.364;2023-07-13T03:52:57;23.80;77.10
4908;DHT22;64375;51.540;7.364;2023-07-13T03:55:25;23.90;76.90
4908;DHT22;64375;51.540;7.364;2023-07-13T03:57:58;24.00;76.70
4908;DHT22;64375;51.540;7.364;2023-07-13T04:00:35;24.10;75.50
4908;DHT22;64375;51.540;7.364;2023-07-13T04:03:03;24.20;76.20
4908;DHT22;64375;51.540;7.364;2023-07-13T04:05:34;24.20;75.80
4908;DHT22;64375;51.540;7.364;2023-07-13T04:08:03;24.20;75.80
4908;DHT22;64375;51.540;7.364;2023-07-13T04:10:37;24.20;75.70
4908;DHT22;64375;51.540;7.364;2023-07-13T04:13:05;24.20;75.80
4908;DHT22;64375;51.540;7.364;2023-07-13T04:15:34;24.20;75.40
4908;DHT22;64375;51.540;7.364;2023-07-13T04:18:02;24.20;74.20
4908;DHT22;64375;51.540;7.364;2023-07-13T04:20:33;23.90;73.50
4908;DHT22;64375;51.540;7.364;2023-07-13T04:23:01;23.90;76.50
4908;DHT22;64375;51.540;7.364;2023-07-13T04:25:30;23.90;76.40
4908;DHT22;64375;51.540;7.364;2023-07-13T04:27:58;24.00;76.30
4908;DHT22;64375;51.540;7.364;2023-07-13T04:30:26;23.90;74.80
4908;DHT22;64375;51.540;7.364;2023-07-13T04:32:55;23.60;75.90
4908;DHT22;64375;51.540;7.364;2023-07-13T04:35:26;23.70;76.50
4908;DHT22;64375;51.540;7.364;2023-07-13T04:38:00;23.90;76.50
4908;DHT22;64375;51.540;7.364;2023-07-13T04:40:29;24.00;76.30
4908;DHT22;64375;51.540;7.364;2023-07-13T04:42:59;24.10;76.10
4908;DHT22;64375;51.540;7.364;2023-07-13T04:45:27;23.80;75.50
4908;DHT22;64375;51.540;7.364;2023-07-13T04:47:56;23.80;75.40
4908;DHT22;64375;51.540;7.364;2023-07-13T04:50:24;23.90;76.10
4908;DHT22;64375;51.540;7.364;2023-07-13T04:52:52;24.00;75.40
4908;DHT22;64375;51.540;7.364;2023-07-13T04:55:20;23.90;73.90
4908;DHT22;64375;51.540;7.364;2023-07-13T04:57:48;23.90;75.20
4908;DHT22;64375;51.540;7.364;2023-07-13T05:00:17;23.90;76.30
4908;DHT22;64375;51.540;7.364;2023-07-13T05:02:48;23.80;75.70
4908;DHT22;64375;51.540;7.364;2023-07-13T05:05:17;23.70;75.90
4908;DHT22;64375;51.540;7.364;2023-07-13T05:07:45;23.80;76.40
4908;DHT22;64375;51.540;7.364;2023-07-13T05:10:15;23.80;74.70
4908;DHT22;64375;51.540;7.364;2023-07-13T05:12:43;23.70;75.10
4908;DHT22;64375;51.540;7.364;2023-07-13T05:15:11;23.60;74.50
4908;DHT22;64375;51.540;7.364;2023-07-13T05:17:39;23.60;75.40
4908;DHT22;64375;51.540;7.364;2023-07-13T05:20:08;23.60;74.70
4908;DHT22;64375;51.540;7.364;2023-07-13T05:22:38;23.60;75.40
4908;DHT22;64375;51.540;7.364;2023-07-13T05:25:07;23.60;75.10
4908;DHT22;64375;51.540;7.364;2023-07-13T05:27:35;23.80;76.20
4908;DHT22;64375;51.540;7.364;2023-07-13T05:30:04;23.80;75.30
4908;DHT22;64375;51.540;7.364;2023-07-13T05:32:36;23.80;74.20
4908;DHT22;64375;51.540;7.364;2023-07-13T05:35:04;23.80;76.10
4908;DHT22;64375;51.540;7.364;2023-07-13T05:37:43;23.80;76.00
4908;DHT22;64375;51.540;7.364;2023-07-13T05:40:17;23.80;76.40
4908;DHT22;64375;51.540;7.364;2023-07-13T05:42:48;23.80;76.10
4908;DHT22;64375;51.540;7.364;2023-07-13T05:45:16;23.90;76.40
4908;DHT22;64375;51.540;7.364;2023-07-13T05:47:44;24.00;76.40
4908;DHT22;64375;51.540;7.364;2023-07-13T05:50:17;24.00;75.90
4908;DHT22;64375;51.540;7.364;2023-07-13T05:52:47;24.10;76.30
4908;DHT22;64375;51.540;7.364;2023-07-13T05:55:15;24.20;76.30
4908;DHT22;64375;51.540;7.364;2023-07-13T05:57:43;24.00;74.90
4908;DHT22;64375;51.540;7.364;2023-07-13T06:00:14;23.80;75.50
4908;DHT22;64375;51.540;7.364;2023-07-13T06:02:48;23.80;75.00
4908;DHT22;64375;51.540;7.364;2023-07-13T06:05:16;23.80;75.20
4908;DHT22;64375;51.540;7.364;2023-07-13T06:07:48;23.80;75.00
4908;DHT22;64375;51.540;7.364;2023-07-13T06:10:17;23.80;75.30
4908;DHT22;64375;51.540;7.364;2023-07-13T06:12:44;23.80;75.80
4908;DHT22;64375;51.540;7.364;2023-07-13T06:15:15;23.80;76.00
4908;DHT22;64375;51.540;7.364;2023-07-13T06:17:44;23.90;76.00
4908;DHT22;64375;51.540;7.364;2023-07-13T06:20:13;24.00;76.30
4908;DHT22;64375;51.540;7.364;2023-07-13T06:22:43;24.10;75.80
4908;DHT22;64375;51.540;7.364;2023-07-13T06:25:13;24.10;76.20
4908;DHT22;64375;51.540;7.364;2023-07-13T06:27:44;24.10;75.90
4908;DHT22;64375;51.540;7.364;2023-07-13T06:30:15;24.10;76.10
4908;DHT22;64375;51.540;7.364;2023-07-13T06:32:49;24.10;76.30
4908;DHT22;64375;51.540;7.364;2023-07-13T06:35:20;24.20;76.60
4908;DHT22;64375;51.540;7.364;2023-07-13T06:37:54;24.30;76.60
4908;DHT22;64375;51.540;7.364;2023-07-13T06:40:26;24.40;76.70
4908;DHT22;64375;51.540;7.364;2023-07-13T06:42:55;24.40;76.70
4908;DHT22;64375;51.540;7.364;2023-07-13T06:45:23;24.40;76.10
4908;DHT22;64375;51.540;7.364;2023-07-13T06:47:51;24.30;76.90
4908;DHT22;64375;51.540;7.364;2023-07-13T06:50:19;24.30;76.90
4908;DHT22;64375;51.540;7.364;2023-07-13T06:52:47;24.30;76.80
4908;DHT22;64375;51.540;7.364;2023-07-13T06:55:15;24.30;76.90
4908;DHT22;64375;51.540;7.364;2023-07-13T06:57:55;24.40;76.70
4908;DHT22;64375;51.540;7.364;2023-07-13T07:00:26;24.50;76.70
4908;DHT22;64375;51.540;7.364;2023-07-13T07:03:06;24.50;76.70
4908;DHT22;64375;51.540;7.364;2023-07-13T07:05:34;24.50;76.80
4908;DHT22;64375;51.540;7.364;2023-07-13T07:08:02;24.60;77.10
4908;DHT22;64375;51.540;7.364;2023-07-13T07:10:30;24.70;77.30
4908;DHT22;64375;51.540;7.364;2023-07-13T07:13:06;24.60;77.30
4908;DHT22;64375;51.540;7.364;2023-07-13T07:15:34;24.60;77.00
4908;DHT22;64375;51.540;7.364;2023-07-13T07:18:06;24.60;77.50
4908;DHT22;64375;51.540;7.364;2023-07-13T07:20:34;24.70;77.70
4908;DHT22;64375;51.540;7.364;2023-07-13T07:23:02;24.70;77.70
4908;DHT22;64375;51.540;7.364;2023-07-13T07:25:33;24.70;77.70
4908;DHT22;64375;51.540;7.364;2023-07-13T07:28:03;24.70;77.50
4908;DHT22;64375;51.540;7.364;2023-07-13T07:30:53;24.80;77.80
4908;DHT22;64375;51.540;7.364;2023-07-13T07:33:42;24.80;77.80
4908;DHT22;64375;51.540;7.364;2023-07-13T07:36:13;24.80;78.00
4908;DHT22;64375;51.540;7.364;2023-07-13T07:38:50;24.90;78.10
4908;DHT22;64375;51.540;7.364;2023-07-13T07:41:25;24.90;78.00
4908;DHT22;64375;51.540;7.364;2023-07-13T07:43:56;25.00;77.60
4908;DHT22;64375;51.540;7.364;2023-07-13T07:46:28;25.00;77.70
4908;DHT22;64375;51.540;7.364;2023-07-13T07:48:57;24.70;75.90
4908;DHT22;64375;51.540;7.364;2023-07-13T07:51:25;24.50;75.70
4908;DHT22;64375;51.540;7.364;2023-07-13T07:53:53;24.40;76.20
4908;DHT22;64375;51.540;7.364;2023-07-13T07:56:21;24.40;76.40
4908;DHT22;64375;51.540;7.364;2023-07-13T07:58:52;24.50;76.50
4908;DHT22;64375;51.540;7.364;2023-07-13T08:01:23;24.40;76.70
4908;DHT22;64375;51.540;7.364;2023-07-13T08:03:57;24.40;76.40
4908;DHT22;64375;51.540;7.364;2023-07-13T08:06:28;24.60;75.90
4908;DHT22;64375;51.540;7.364;2023-07-13T08:09:16;24.40;77.10
4908;DHT22;64375;51.540;7.364;2023-07-13T08:11:46;24.30;76.20
4908;DHT22;64375;51.540;7.364;2023-07-13T08:14:17;24.30;76.70
4908;DHT22;64375;51.540;7.364;2023-07-13T08:16:48;24.40;76.20
4908;DHT22;64375;51.540;7.364;2023-07-13T08:19:18;24.40;75.80
4908;DHT22;64375;51.540;7.364;2023-07-13T08:21:45;24.20;75.40
4908;DHT22;64375;51.540;7.364;2023-07-13T08:24:17;24.10;75.80
4908;DHT22;64375;51.540;7.364;2023-07-13T08:26:45;23.90;76.00
4908;DHT22;64375;51.540;7.364;2023-07-13T08:29:13;23.80;76.50
4908;DHT22;64375;51.540;7.364;2023-07-13T08:31:41;23.80;76.60
4908;DHT22;64375;51.540;7.364;2023-07-13T08:34:23;23.70;76.90
4908;DHT22;64375;51.540;7.364;2023-07-13T08:36:59;23.90;76.70
4908;DHT22;64375;51.540;7.364;2023-07-13T08:39:44;23.90;76.50
4908;DHT22;64375;51.540;7.364;2023-07-13T08:42:33;24.00;76.60
4908;DHT22;64375;51.540;7.364;2023-07-13T08:45:12;24.20;76.30
4908;DHT22;64375;51.540;7.364;2023-07-13T08:47:46;24.30;76.20
4908;DHT22;64375;51.540;7.364;2023-07-13T08:50:17;24.40;75.70
4908;DHT22;64375;51.540;7.364;2023-07-13T08:52:48;24.40;75.60
4908;DHT22;64375;51.540;7.364;2023-07-13T08:55:26;24.40;75.50
4908;DHT22;64375;51.540;7.364;2023-07-13T08:58:01;24.50;75.70
4908;DHT22;64375;51.540;7.364;2023-07-13T09:00:37;24.50;75.50
4908;DHT22;64375;51.540;7.364;2023-07-13T09:03:18;24.50;75.40
4908;DHT22;64375;51.540;7.364;2023-07-13T09:05:51;24.60;75.20
4908;DHT22;64375;51.540;7.364;2023-07-13T09:08:34;24.50;75.10
4908;DHT22;64375;51.540;7.364;2023-07-13T09:11:12;24.50;76.20
4908;DHT22;64375;51.540;7.364;2023-07-13T09:13:50;24.60;75.30
4908;DHT22;64375;51.540;7.364;2023-07-13T09:16:24;24.70;75.90
4908;DHT22;64375;51.540;7.364;2023-07-13T09:18:59;24.70;75.20
4908;DHT22;64375;51.540;7.364;2023-07-13T09:21:35;24.60;75.60
4908;DHT22;64375;51.540;7.364;2023-07-13T09:24:26;24.40;75.90
4908;DHT22;64375;51.540;7.364;2023-07-13T09:26:56;24.20;76.30
4908;DHT22;64375;51.540;7.364;2023-07-13T09:29:28;24.20;76.50
4908;DHT22;64375;51.540;7.364;2023-07-13T09:32:00;24.00;76.50
4908;DHT22;64375;51.540;7.364;2023-07-13T09:34:49;23.90;76.80
4908;DHT22;64375;51.540;7.364;2023-07-13T09:37:35;23.90;77.10
4908;DHT22;64375;51.540;7.364;2023-07-13T09:40:08;24.20;76.70
4908;DHT22;64375;51.540;7.364;2023-07-13T09:42:38;24.30;77.10
4908;DHT22;64375;51.540;7.364;2023-07-13T09:45:09;24.50;76.70
4908;DHT22;64375;51.540;7.364;2023-07-13T09:47:39;24.60;76.10
4908;DHT22;64375;51.540;7.364;2023-07-13T09:50:15;24.80;75.90
4908;DHT22;64375;51.540;7.364;2023-07-13T09:52:50;24.90;75.50
4908;DHT22;64375;51.540;7.364;2023-07-13T09:55:32;25.10;75.10
4908;DHT22;64375;51.540;7.364;2023-07-13T09:58:04;25.10;75.20
4908;DHT22;64375;51.540;7.364;2023-07-13T10:00:36;25.10;75.20
4908;DHT22;64375;51.540;7.364;2023-07-13T10:03:16;24.90;75.70
4908;DHT22;64375;51.540;7.364;2023-07-13T10:05:51;24.90;75.30
4908;DHT22;64375;51.540;7.364;2023-07-13T10:08:25;24.80;74.90
4908;DHT22;64375;51.540;7.364;2023-07-13T10:11:09;24.60;75.00
4908;DHT22;64375;51.540;7.364;2023-07-13T10:13:42;24.50;75.80
4908;DHT22;64375;51.540;7.364;2023-07-13T10:16:11;24.50;75.60
4908;DHT22;64375;51.540;7.364;2023-07-13T10:18:45;24.30;75.70
4908;DHT22;64375;51.540;7.364;2023-07-13T10:21:18;24.30;75.70
4908;DHT22;64375;51.540;7.364;2023-07-13T10:24:10;24.30;75.90
4908;DHT22;64375;51.540;7.364;2023-07-13T10:26:57;24.50;76.20
4908;DHT22;64375;51.540;7.364;2023-07-13T10:29:36;24.40;75.60
4908;DHT22;64375;51.540;7.364;2023-07-13T10:32:11;24.30;77.00
4908;DHT22;64375;51.540;7.364;2023-07-13T10:34:41;24.40;76.90
4908;DHT22;64375;51.540;7.364;2023-07-13T10:37:18;24.50;77.30
4908;DHT22;64375;51.540;7.364;2023-07-13T10:39:54;24.50;77.70
4908;DHT22;64375;51.540;7.364;2023-07-13T10:42:29;24.50;76.80
4908;DHT22;64375;51.540;7.364;2023-07-13T10:44:57;24.30;75.60
4908;DHT22;64375;51.540;7.364;2023-07-13T10:47:26;24.20;76.10
4908;DHT22;64375;51.540;7.364;2023-07-13T10:49:57;24.20;76.20
4908;DHT22;64375;51.540;7.364;2023-07-13T10:52:41;24.30;76.10
4908;DHT22;64375;51.540;7.364;2023-07-13T10:55:31;24.30;76.30
4908;DHT22;64375;51.540;7.364;2023-07-13T10:58:14;24.20;75.90
4908;DHT22;64375;51.540;7.364;2023-07-13T11:00:49;24.10;76.80
4908;DHT22;64375;51.540;7.364;2023-07-13T11:03:20;24.10;76.30
4908;DHT22;64375;51.540;7.364;2023-07-13T11:05:50;24.20;76.00
4908;DHT22;64375;51.540;7.364;2023-07-13T11:08:23;24.30;76.00
4908;DHT22;64375;51.540;7.364;2023-07-13T11:11:01;24.40;76.20
4908;DHT22;64375;51.540;7.364;2023-07-13T11:13:57;24.40;76.00
4908;DHT22;64375;51.540;7.364;2023-07-13T11:16:37;24.40;76.20
4908;DHT22;64375;51.540;7.364;2023-07-13T11:22:42;24.60;77.50
4908;DHT22;64375;51.540;7.364;2023-07-13T11:25:28;24.60;76.30
4908;DHT22;64375;51.540;7.364;2023-07-13T11:28:27;24.60;75.50
4908;DHT22;64375;51.540;7.364;2023-07-13T11:31:14;24.50;74.70
4908;DHT22;64375;51.540;7.364;2023-07-13T11:33:56;24.40;74.90
4908;DHT22;64375;51.540;7.364;2023-07-13T11:36:36;24.40;75.00
4908;DHT22;64375;51.540;7.364;2023-07-13T11:39:18;24.30;76.40
4908;DHT22;64375;51.540;7.364;2023-07-13T11:41:50;24.50;76.80
4908;DHT22;64375;51.540;7.364;2023-07-13T11:44:21;24.70;76.50
4908;DHT22;64375;51.540;7.364;2023-07-13T11:47:08;24.90;75.70
4908;DHT22;64375;51.540;7.364;2023-07-13T11:49:42;24.80;75.50
4908;DHT22;64375;51.540;7.364;2023-07-13T11:52:11;24.80;78.50
4908;DHT22;64375;51.540;7.364;2023-07-13T11:54:49;24.90;77.60
4908;DHT22;64375;51.540;7.364;2023-07-13T11:57:26;25.00;74.90
4908;DHT22;64375;51.540;7.364;2023-07-13T11:59:55;25.00;74.90
4908;DHT22;64375;51.540;7.364;2023-07-13T12:02:29;24.90;74.80
4908;DHT22;64375;51.540;7.364;2023-07-13T12:05:00;25.00;74.50
4908;DHT22;64375;51.540;7.364;2023-07-13T12:07:33;25.00;74.10
4908;DHT22;64375;51.540;7.364;2023-07-13T12:10:01;24.90;74.00
4908;DHT22;64375;51.540;7.364;2023-07-13T12:12:30;24.90;73.50
4908;DHT22;64375;51.540;7.364;2023-07-13T12:14:58;24.90;73.20
4908;DHT22;64375;51.540;7.364;2023-07-13T12:17:28;24.80;72.60
4908;DHT22;64375;51.540;7.364;2023-07-13T12:19:57;24.80;72.20
4908;DHT22;64375;51.540;7.364;2023-07-13T12:22:25;24.80;72.20
4908;DHT22;64375;51.540;7.364;2023-07-13T12:24:53;24.80;71.90
4908;DHT22;64375;51.540;7.364;2023-07-13T12:27:24;24.80;72.20
4908;DHT22;64375;51.540;7.364;2023-07-13T12:30:02;24.80;71.40
4908;DHT22;64375;51.540;7.364;2023-07-13T12:32:33;24.70;71.30
4908;DHT22;64375;51.540;7.364;2023-07-13T12:35:14;24.70;71.70
4908;DHT22;64375;51.540;7.364;2023-07-13T12:37:42;24.80;72.60
4908;DHT22;64375;51.540;7.364;2023-07-13T12:40:21;25.00;72.60
4908;DHT22;64375;51.540;7.364;2023-07-13T12:43:00;25.20;72.10
4908;DHT22;64375;51.540;7.364;2023-07-13T12:45:31;25.30;71.70
4908;DHT22;64375;51.540;7.364;2023-07-13T12:48:06;25.40;71.10
4908;DHT22;64375;51.540;7.364;2023-07-13T12:50:41;25.30;71.00
4908;DHT22;64375;51.540;7.364;2023-07-13T12:53:14;25.30;70.70
4908;DHT22;64375;51.540;7.364;2023-07-13T12:55:45;25.40;70.60
4908;DHT22;64375;51.540;7.364;2023-07-13T12:58:20;25.50;70.90
4908;DHT22;64375;51.540;7.364;2023-07-13T13:00:56;25.50;70.60
4908;DHT22;64375;51.540;7.364;2023-07-13T13:03:31;25.50;68.70
4908;DHT22;64375;51.540;7.364;2023-07-13T13:06:05;25.40;69.20
4908;DHT22;64375;51.540;7.364;2023-07-13T13:08:35;25.40;69.40
4908;DHT22;64375;51.540;7.364;2023-07-13T13:11:03;25.50;69.40
4908;DHT22;64375;51.540;7.364;2023-07-13T13:13:31;25.60;69.40
4908;DHT22;64375;51.540;7.364;2023-07-13T13:16:04;25.70;69.00
4908;DHT22;64375;51.540;7.364;2023-07-13T13:18:34;25.70;69.30
4908;DHT22;64375;51.540;7.364;2023-07-13T13:21:02;25.70;69.40
4908;DHT22;64375;51.540;7.364;2023-07-13T13:23:30;25.70;69.30
4908;DHT22;64375;51.540;7.364;2023-07-13T13:26:05;25.60;68.90
4908;DHT22;64375;51.540;7.364;2023-07-13T13:28:36;25.70;68.30
4908;DHT22;64375;51.540;7.364;2023-07-13T13:31:15;25.70;68.10
4908;DHT22;64375;51.540;7.364;2023-07-13T13:33:55;25.70;68.20
4908;DHT22;64375;51.540;7.364;2023-07-13T13:36:25;25.60;68.50
4908;DHT22;64375;51.540;7.364;2023-07-13T13:38:56;25.50;69.90
4908;DHT22;64375;51.540;7.364;2023-07-13T13:41:30;25.00;72.00
4908;DHT22;64375;51.540;7.364;2023-07-13T13:43:58;24.60;72.80
4908;DHT22;64375;51.540;7.364;2023-07-13T13:46:26;24.30;72.60
4908;DHT22;64375;51.540;7.364;2023-07-13T13:48:57;24.10;73.30
4908;DHT22;64375;51.540;7.364;2023-07-13T13:51:24;24.00;74.90
4908;DHT22;64375;51.540;7.364;2023-07-13T13:53:53;24.00;76.20
4908;DHT22;64375;51.540;7.364;2023-07-13T13:56:21;24.10;78.10
4908;DHT22;64375;51.540;7.364;2023-07-13T13:58:49;24.20;78.40
4908;DHT22;64375;51.540;7.364;2023-07-13T14:01:19;24.30;78.80
4908;DHT22;64375;51.540;7.364;2023-07-13T14:03:47;24.40;78.60
4908;DHT22;64375;51.540;7.364;2023-07-13T14:06:21;24.50;78.30
4908;DHT22;64375;51.540;7.364;2023-07-13T14:08:51;24.70;78.20
4908;DHT22;64375;51.540;7.364;2023-07-13T14:11:25;25.00;78.30
4908;DHT22;64375;51.540;7.364;2023-07-13T14:13:55;25.20;77.70
4908;DHT22;64375;51.540;7.364;2023-07-13T14:16:33;25.40;77.20
4908;DHT22;64375;51.540;7.364;2023-07-13T14:19:04;25.50;76.90
4908;DHT22;64375;51.540;7.364;2023-07-13T14:21:35;25.70;76.70
4908;DHT22;64375;51.540;7.364;2023-07-13T14:24:09;25.80;76.30
4908;DHT22;64375;51.540;7.364;2023-07-13T14:26:43;25.80;76.50
4908;DHT22;64375;51.540;7.364;2023-07-13T14:29:13;25.80;76.20
4908;DHT22;64375;51.540;7.364;2023-07-13T14:31:41;25.80;76.60
4908;DHT22;64375;51.540;7.364;2023-07-13T14:34:10;25.80;76.10
4908;DHT22;64375;51.540;7.364;2023-07-13T14:36:43;25.90;76.30
4908;DHT22;64375;51.540;7.364;2023-07-13T14:39:15;25.80;77.50
4908;DHT22;64375;51.540;7.364;2023-07-13T14:41:43;25.80;77.20
4908;DHT22;64375;51.540;7.364;2023-07-13T14:44:15;25.80;76.50
4908;DHT22;64375;51.540;7.364;2023-07-13T14:46:44;25.90;76.50
4908;DHT22;64375;51.540;7.364;2023-07-13T14:49:28;26.00;76.40
4908;DHT22;64375;51.540;7.364;2023-07-13T14:52:02;25.90;77.10
4908;DHT22;64375;51.540;7.364;2023-07-13T14:54:30;25.90;77.00
4908;DHT22;64375;51.540;7.364;2023-07-13T14:56:58;25.70;76.70
4908;DHT22;64375;51.540;7.364;2023-07-13T14:59:33;25.70;77.00
4908;DHT22;64375;51.540;7.364;2023-07-13T15:02:01;25.60;78.10
4908;DHT22;64375;51.540;7.364;2023-07-13T15:04:31;25.70;77.40
4908;DHT22;64375;51.540;7.364;2023-07-13T15:07:04;25.80;77.00
4908;DHT22;64375;51.540;7.364;2023-07-13T15:09:34;26.00;76.80
4908;DHT22;64375;51.540;7.364;2023-07-13T15:12:03;26.10;76.60
4908;DHT22;64375;51.540;7.364;2023-07-13T15:14:32;26.00;77.40
4908;DHT22;64375;51.540;7.364;2023-07-13T15:17:00;26.10;76.70
4908;DHT22;64375;51.540;7.364;2023-07-13T15:19:28;26.30;75.90
4908;DHT22;64375;51.540;7.364;2023-07-13T15:21:57;26.40;75.50
4908;DHT22;64375;51.540;7.364;2023-07-13T15:24:28;26.40;75.70
4908;DHT22;64375;51.540;7.364;2023-07-13T15:26:56;26.50;74.80
4908;DHT22;64375;51.540;7.364;2023-07-13T15:29:25;25.90;76.50
4908;DHT22;64375;51.540;7.364;2023-07-13T15:31:55;25.60;82.30
4908;DHT22;64375;51.540;7.364;2023-07-13T15:34:25;25.40;79.90
4908;DHT22;64375;51.540;7.364;2023-07-13T15:36:57;25.60;78.50
4908;DHT22;64375;51.540;7.364;2023-07-13T15:39:29;25.60;78.90
4908;DHT22;64375;51.540;7.364;2023-07-13T15:42:05;25.70;78.10
4908;DHT22;64375;51.540;7.364;2023-07-13T15:44:36;25.80;76.90
4908;DHT22;64375;51.540;7.364;2023-07-13T15:47:05;26.00;77.50
4908;DHT22;64375;51.540;7.364;2023-07-13T15:49:33;26.00;77.10
4908;DHT22;64375;51.540;7.364;2023-07-13T15:52:01;26.10;77.30
4908;DHT22;64375;51.540;7.364;2023-07-13T15:54:31;26.00;78.50
4908;DHT22;64375;51.540;7.364;2023-07-13T15:57:01;26.20;77.10
4908;DHT22;64375;51.540;7.364;2023-07-13T15:59:32;26.30;76.60
4908;DHT22;64375;51.540;7.364;2023-07-13T16:02:00;26.40;76.40
4908;DHT22;64375;51.540;7.364;2023-07-13T16:04:44;26.50;78.30
4908;DHT22;64375;51.540;7.364;2023-07-13T16:07:15;26.20;78.10
4908;DHT22;64375;51.540;7.364;2023-07-13T16:09:45;26.30;76.90
4908;DHT22;64375;51.540;7.364;2023-07-13T16:12:15;26.30;77.30
4908;DHT22;64375;51.540;7.364;2023-07-13T16:14:43;26.30;77.30
4908;DHT22;64375;51.540;7.364;2023-07-13T16:17:15;26.60;76.70
4908;DHT22;64375;51.540;7.364;2023-07-13T16:19:47;26.60;76.60